Terminal Aerodrome Forecast
Issued by NWS

Home | Current Version | Previous Version | Text Only | Print | Product List | Glossary On
Versions: 1 2 3 4 5 6 7 8 9 10 11 12 13
000
FTUS46 KSEW 292300
TAFCLM
TAF
KCLM 292326Z 3000/3024 31010KT P6SM SKC
     FM300200 29012G22KT P6SM SKC
     FM300600 27008KT P6SM VCFG SCT002
     FM301200 28006KT 1SM BR OVC002
     FM301700 32006KT P6SM SCT008
     FM301900 32009KT P6SM SKC=

USA.gov is the U.S. government's official web portal to all federal, state and local government web resources and services.